createdAt,value
2022-12-12T00:00:02.152Z,98.15
2022-12-12T00:05:01.518Z,97.11
2022-12-12T00:10:01.556Z,97.11
2022-12-12T00:20:01.758Z,98.27
2022-12-12T00:25:02.148Z,97.76
2022-12-12T00:30:01.469Z,98.26
2022-12-12T00:35:01.848Z,97.94
2022-12-12T00:40:01.998Z,97.01
2022-12-12T00:45:01.726Z,97.95
2022-12-12T00:50:01.795Z,98.21
2022-12-12T00:55:02.291Z,97.12
2022-12-12T01:00:02.063Z,97.95
2022-12-12T01:05:01.339Z,97.95
2022-12-12T01:10:01.688Z,97.56
2022-12-12T01:15:01.593Z,97.24
2022-12-12T01:20:01.862Z,97.18
2022-12-12T01:25:02.072Z,97.19
2022-12-12T01:30:01.355Z,96.92
2022-12-12T01:35:01.950Z,97.14
2022-12-12T01:40:02.009Z,96.86
2022-12-12T01:45:02.261Z,96.93
2022-12-12T01:50:01.342Z,96.96
2022-12-12T01:55:01.611Z,96.7
2022-12-12T02:00:01.987Z,96.47
2022-12-12T02:05:02.147Z,96.62
2022-12-12T02:10:01.383Z,96.69
2022-12-12T02:15:01.974Z,96.7
2022-12-12T02:20:02.334Z,97.19
2022-12-12T02:25:02.189Z,96.75
2022-12-12T02:30:01.519Z,96.72
2022-12-12T02:35:01.918Z,96.67
2022-12-12T02:40:01.369Z,96.54
2022-12-12T02:45:02.129Z,96.83
2022-12-12T02:50:01.569Z,96.79
2022-12-12T02:55:01.388Z,96.89
2022-12-12T03:00:01.887Z,97.01
2022-12-12T03:05:01.415Z,97.16
2022-12-12T03:10:01.805Z,97.08
2022-12-12T03:15:02.061Z,97.01
2022-12-12T03:20:02.140Z,97.21
2022-12-12T03:25:01.362Z,97.15
2022-12-12T03:30:01.706Z,97.34
2022-12-12T03:35:01.874Z,96.95
2022-12-12T03:40:01.366Z,97.1
2022-12-12T03:45:01.865Z,96.88
2022-12-12T03:50:01.897Z,96.84
2022-12-12T03:55:01.916Z,97.04
2022-12-12T04:00:01.361Z,96.86
2022-12-12T04:05:02.077Z,96.72
2022-12-12T04:10:01.672Z,96.81
2022-12-12T04:15:01.383Z,96.53
2022-12-12T04:20:02.264Z,96.41
2022-12-12T04:25:02.314Z,96.21
2022-12-12T04:30:02.156Z,96.31
2022-12-12T04:35:01.529Z,96.28
2022-12-12T04:40:01.538Z,96.92
2022-12-12T04:45:01.755Z,96.93
2022-12-12T04:50:02.124Z,97.31
2022-12-12T04:55:02.253Z,97.54
2022-12-12T05:00:01.627Z,97.69
2022-12-12T05:05:02.040Z,97.37
2022-12-12T05:10:02.094Z,97.44
2022-12-12T05:15:01.890Z,97.44
2022-12-12T05:20:02.104Z,97.52
2022-12-12T05:25:01.615Z,97.62
2022-12-12T05:30:02.008Z,97.76
2022-12-12T05:35:01.837Z,97.79
2022-12-12T05:40:02.033Z,98.38
2022-12-12T05:45:02.110Z,97.72
2022-12-12T05:50:02.091Z,97.95
2022-12-12T05:55:01.328Z,98.39
2022-12-12T06:00:01.788Z,98.11
2022-12-12T06:05:01.945Z,97.76
2022-12-12T06:10:01.545Z,97.02
2022-12-12T06:15:02.047Z,97.99
2022-12-12T06:20:01.456Z,97.98
2022-12-12T06:25:01.559Z,97.33
2022-12-12T06:30:01.410Z,96.53
2022-12-12T06:35:01.664Z,96.99
2022-12-12T06:40:01.538Z,96.91
2022-12-12T06:45:01.553Z,96.37
2022-12-12T06:50:01.600Z,96.34
2022-12-12T06:55:01.375Z,96.08
2022-12-12T07:00:01.327Z,95.99
2022-12-12T07:05:01.302Z,96.05
2022-12-12T07:10:01.334Z,96.24
2022-12-12T07:15:02.231Z,96.28
2022-12-12T07:20:02.115Z,96.26
2022-12-12T07:25:02.093Z,96.39
2022-12-12T07:30:02.157Z,96.74
2022-12-12T07:35:01.959Z,96.73
2022-12-12T07:40:02.062Z,96.74
2022-12-12T07:45:02.190Z,96.6
2022-12-12T07:50:01.270Z,96.38
2022-12-12T07:55:01.610Z,96.7
2022-12-12T08:00:01.288Z,96.56
2022-12-12T08:05:01.758Z,96.35
2022-12-12T08:10:01.712Z,96.11
2022-12-12T08:15:02.221Z,96.25
2022-12-12T08:20:01.769Z,95.59
2022-12-12T08:25:02.204Z,95.8
2022-12-12T08:30:02.118Z,95.92
2022-12-12T08:35:01.592Z,95.42
2022-12-12T08:40:02.182Z,95.47
2022-12-12T08:45:01.615Z,95.15
2022-12-12T08:50:01.567Z,95.59
2022-12-12T08:55:01.561Z,95.87
2022-12-12T09:00:01.591Z,95.83
2022-12-12T09:05:01.661Z,95.55
2022-12-12T09:10:02.044Z,95.4
2022-12-12T09:15:01.456Z,95.2
2022-12-12T09:20:01.787Z,95.05
2022-12-12T09:25:01.924Z,95.18
2022-12-12T09:30:02.100Z,94.6
2022-12-12T09:35:01.735Z,94.32
2022-12-12T09:40:01.653Z,94.03
2022-12-12T09:45:01.649Z,93.73
2022-12-12T09:50:02.036Z,93.35
2022-12-12T09:55:01.850Z,93.32
2022-12-12T10:00:02.294Z,92.08
2022-12-12T10:05:01.537Z,91.53
2022-12-12T10:10:02.083Z,92.11
2022-12-12T10:15:01.972Z,92.87
2022-12-12T10:20:02.041Z,92.65
2022-12-12T10:25:01.780Z,91.05
2022-12-12T10:30:01.868Z,89.46
2022-12-12T10:35:01.790Z,89.45
2022-12-12T10:40:01.713Z,88.56
2022-12-12T10:45:01.879Z,88.36
2022-12-12T10:50:02.089Z,88.52
2022-12-12T10:55:01.255Z,88.19
2022-12-12T11:00:01.390Z,88.24
2022-12-12T11:05:01.683Z,88.36
2022-12-12T11:10:02.642Z,88.66
2022-12-12T11:15:01.823Z,88.17
2022-12-12T11:20:02.087Z,87.72
2022-12-12T11:25:02.023Z,87.06
2022-12-12T11:30:02.102Z,86.88
2022-12-12T11:35:01.750Z,86.49
2022-12-12T11:40:01.809Z,85.69
2022-12-12T11:45:01.871Z,85.42
2022-12-12T11:50:07.663Z,85.44
2022-12-12T11:55:01.398Z,85.34
2022-12-12T12:00:01.494Z,86.3
2022-12-12T12:05:01.594Z,85.39
2022-12-12T12:10:01.666Z,85.67
2022-12-12T12:15:01.960Z,85.1
2022-12-12T12:20:02.016Z,84.95
2022-12-12T12:25:01.877Z,84.66
2022-12-12T12:30:01.986Z,84.79
2022-12-12T12:35:02.069Z,84.52
2022-12-12T12:40:01.845Z,84.53
2022-12-12T12:45:01.839Z,84.24
2022-12-12T12:50:01.762Z,84.15
2022-12-12T12:55:01.713Z,83.65
2022-12-12T13:00:01.876Z,84.7
2022-12-12T13:05:01.882Z,84.98
2022-12-12T13:10:01.896Z,84.89
2022-12-12T13:15:01.938Z,84.6
2022-12-12T13:20:01.892Z,83.82
2022-12-12T13:25:01.262Z,84.37
2022-12-12T13:30:01.317Z,84.16
2022-12-12T13:35:01.561Z,84.58
2022-12-12T13:40:01.608Z,84.63
2022-12-12T13:45:01.645Z,85.62
2022-12-12T13:50:01.559Z,84.98
2022-12-12T13:55:01.488Z,85.01
2022-12-12T14:00:01.727Z,85.44
2022-12-12T14:05:02.185Z,85.46
2022-12-12T14:10:01.996Z,85.97
2022-12-12T14:15:01.895Z,86.41
2022-12-12T14:20:01.931Z,86.16
2022-12-12T14:25:02.019Z,86.01
2022-12-12T14:30:01.726Z,86.12
2022-12-12T14:35:01.770Z,86.17
2022-12-12T14:40:01.862Z,86.43
2022-12-12T14:45:01.693Z,86.03
2022-12-12T14:50:02.240Z,86.62
2022-12-12T14:55:01.272Z,86.96
2022-12-12T15:00:01.645Z,87.03
2022-12-12T15:05:04.771Z,86.95
2022-12-12T15:10:02.139Z,87.46
2022-12-12T15:15:02.089Z,87.52
2022-12-12T15:20:02.187Z,88.13
2022-12-12T15:25:02.124Z,88.64
2022-12-12T15:30:02.106Z,88.92
2022-12-12T15:35:01.426Z,88.92
2022-12-12T15:40:01.800Z,89.6
2022-12-12T15:45:01.485Z,89.65
2022-12-12T15:50:01.715Z,90.17
2022-12-12T15:55:01.604Z,90.23
2022-12-12T16:00:01.588Z,90.23
2022-12-12T16:05:01.881Z,90.06
2022-12-12T16:10:02.028Z,89.97
2022-12-12T16:15:01.967Z,90.23
2022-12-12T16:20:02.228Z,90.65
2022-12-12T16:25:01.349Z,90.9
2022-12-12T16:30:02.334Z,91.19
2022-12-12T16:35:01.653Z,91.38
2022-12-12T16:40:01.841Z,91.58
2022-12-12T16:45:01.605Z,91.94
2022-12-12T16:50:02.149Z,92.09
2022-12-12T16:55:01.796Z,92.22
2022-12-12T17:00:01.678Z,92.25
2022-12-12T17:05:02.291Z,92.54
2022-12-12T17:10:02.301Z,92.55
2022-12-12T17:15:01.980Z,92.9
2022-12-12T17:20:01.828Z,92.96
2022-12-12T17:25:01.823Z,92.8
2022-12-12T17:30:02.330Z,93.03
2022-12-12T17:35:02.199Z,93.09
2022-12-12T17:40:02.094Z,93.31
2022-12-12T17:45:01.760Z,93.48
2022-12-12T17:50:01.619Z,93.82
2022-12-12T17:55:52.918Z,94.32
2022-12-12T18:00:02.283Z,94.1
2022-12-12T18:05:02.403Z,94.41
2022-12-12T18:10:02.222Z,94.41
2022-12-12T18:20:01.831Z,94.34
2022-12-12T18:25:01.949Z,94.32
2022-12-12T18:30:02.062Z,94.22
2022-12-12T18:35:01.355Z,94.16
2022-12-12T18:40:01.913Z,94.28
2022-12-12T18:45:01.534Z,94.4
2022-12-12T18:50:01.634Z,94.38
2022-12-12T18:55:01.570Z,94.5
2022-12-12T19:00:01.889Z,94.83
2022-12-12T19:05:01.273Z,94.87
2022-12-12T19:10:01.641Z,94.94
2022-12-12T19:15:16.617Z,94.93
2022-12-12T19:20:01.670Z,95.1
2022-12-12T19:25:02.032Z,95.27
2022-12-12T19:30:01.534Z,95.35
2022-12-12T19:35:01.686Z,95.47
2022-12-12T19:40:02.231Z,95.68
2022-12-12T19:45:02.054Z,95.73
2022-12-12T19:50:01.973Z,95.82
2022-12-12T19:55:02.050Z,95.8
2022-12-12T20:00:02.138Z,95.86
2022-12-12T20:05:01.449Z,95.96
2022-12-12T20:10:01.727Z,96.13
2022-12-12T20:15:01.668Z,96.02
2022-12-12T20:20:01.703Z,96.09
2022-12-12T20:25:01.933Z,96.19
2022-12-12T20:30:01.835Z,96.29
2022-12-12T20:35:01.780Z,96.43
2022-12-12T20:40:01.874Z,96.37
2022-12-12T20:45:02.017Z,96.51
2022-12-12T20:50:01.968Z,96.65
2022-12-12T20:55:01.993Z,96.67
2022-12-12T21:00:02.013Z,96.85
2022-12-12T21:05:01.410Z,97.02
2022-12-12T21:10:01.809Z,97.16
2022-12-12T21:15:03.083Z,97.35
2022-12-12T21:20:06.563Z,97.47
2022-12-12T21:25:01.930Z,97.67
2022-12-12T21:30:01.903Z,97.74
2022-12-12T21:35:02.008Z,97.92
2022-12-12T21:40:01.987Z,97.94
2022-12-12T21:45:01.334Z,98.13
2022-12-12T21:50:01.364Z,98.08
2022-12-12T21:55:01.413Z,98.15
2022-12-12T22:00:01.533Z,98.17
2022-12-12T22:05:02.084Z,97.43
2022-12-12T22:10:10.798Z,98.25
2022-12-12T22:15:02.042Z,97.98
2022-12-12T22:20:01.962Z,97.16
2022-12-12T22:25:01.826Z,96.4
2022-12-12T22:30:01.909Z,95.18
2022-12-12T22:35:01.966Z,95.28
2022-12-12T22:40:01.852Z,95.44
2022-12-12T22:45:01.933Z,96.86
2022-12-12T22:50:01.923Z,97.73
2022-12-12T22:55:02.008Z,97.73
2022-12-12T23:00:02.055Z,98.51
2022-12-12T23:05:01.583Z,98.69
2022-12-12T23:10:01.920Z,97.28
2022-12-12T23:15:01.791Z,98.21
2022-12-12T23:20:01.966Z,96.05
2022-12-12T23:25:01.836Z,98.17
2022-12-12T23:30:01.855Z,98.31
2022-12-12T23:35:02.132Z,95.95
2022-12-12T23:40:02.063Z,95.81
2022-12-12T23:45:02.061Z,97.4
2022-12-12T23:50:02.041Z,98.51
2022-12-12T23:55:01.873Z,96.04
